Terminal Aerodrome Forecast
Issued by NWS

Home | Current Version | Previous Version | Text Only | Print | Product List | Glossary On
Versions: 1 2 3 4 5 6 7 8 9 10 11 12
000
FTAK31 PAJN 202325
TAFASI
TAF
PASI 202325Z 2100/2124 30013KT P6SM SCT015
     FM210700 30004KT P6SM BKN015
      TEMPO 2112/2116 3SM BR BKN008 OVC015
     FM211700 30008KT P6SM FEW015 SCT080 BKN250 PROB30 2122/2124 -RA
      OVC060=

USA.gov is the U.S. government's official web portal to all federal, state and local government web resources and services.